Time;durP1;ratioP1;P1;durP2;ratioP2;P2;SDS_P1;SDS_P2;PMS_P1;PMS_P2;Temp;Humidity;BMP_temperature;BMP_pressure;BME280_temperature;BME280_humidity;BME280_pressure;Samples;Min_cycle;Max_cycle;Signal;HPM_P1;HPM_P2
2022/06/11 00:01:38;;;;;;;8.80;7.90;;;15.40;99.90;;;;;;4973746;28;20116;-82
2022/06/11 00:04:10;;;;;;;9.93;7.47;;;15.40;99.90;;;;;;4968693;28;20038;-82
2022/06/11 00:06:41;;;;;;;8.27;7.05;;;15.40;99.90;;;;;;4975693;28;20132;-82
2022/06/11 00:09:08;;;;;;;8.63;7.20;;;15.40;99.90;;;;;;4969984;28;20082;-82
2022/06/11 00:11:35;;;;;;;9.00;7.68;;;15.30;99.90;;;;;;4969567;28;20034;-82
2022/06/11 00:14:00;;;;;;;9.27;7.38;;;15.30;99.90;;;;;;4994149;28;20480;-82
2022/06/11 00:16:27;;;;;;;10.98;7.13;;;15.20;99.90;;;;;;4980290;28;20096;-82
2022/06/11 00:18:55;;;;;;;9.85;6.97;;;15.10;99.90;;;;;;4972051;28;20054;-82
2022/06/11 00:21:21;;;;;;;10.68;7.15;;;15.10;99.90;;;;;;4973806;28;20379;-82
2022/06/11 00:23:47;;;;;;;10.60;7.72;;;15.10;99.90;;;;;;4979789;28;20512;-82
2022/06/11 00:26:13;;;;;;;10.07;6.97;;;15.00;99.90;;;;;;4983495;28;20045;-82
2022/06/11 00:28:39;;;;;;;8.45;7.47;;;14.90;99.90;;;;;;4961162;28;20046;-82
2022/06/11 00:31:06;;;;;;;7.60;6.85;;;14.80;99.90;;;;;;4970831;28;20128;-82
2022/06/11 00:33:32;;;;;;;8.13;7.22;;;14.80;99.90;;;;;;4996239;28;20034;-82
2022/06/11 00:35:58;;;;;;;7.93;6.75;;;14.70;99.90;;;;;;4981215;28;20042;-82
2022/06/11 00:38:24;;;;;;;11.50;7.65;;;14.70;99.90;;;;;;4982658;28;20087;-82
2022/06/11 00:40:52;;;;;;;9.00;7.40;;;14.60;99.90;;;;;;4989284;28;20038;-82
2022/06/11 00:43:20;;;;;;;10.63;8.57;;;14.60;99.90;;;;;;4986335;28;20048;-82
2022/06/11 00:46:21;;;;;;;11.90;8.55;;;14.60;99.90;;;;;;5002688;28;20049;-83
2022/06/11 00:48:47;;;;;;;10.63;8.40;;;14.60;99.90;;;;;;4979888;28;20374;-82
2022/06/11 00:51:17;;;;;;;8.85;7.95;;;14.40;99.90;;;;;;4974333;28;20034;-82
2022/06/11 00:53:51;;;;;;;11.18;8.27;;;14.50;99.90;;;;;;4977634;28;20066;-82
2022/06/11 00:56:22;;;;;;;9.52;8.18;;;14.50;99.90;;;;;;4968994;28;20035;-82
2022/06/11 00:58:50;;;;;;;8.82;7.63;;;14.40;99.90;;;;;;4979392;28;20038;-82
2022/06/11 01:01:18;;;;;;;9.07;8.05;;;14.30;99.90;;;;;;4988945;28;20033;-82
2022/06/11 01:03:46;;;;;;;9.80;8.63;;;14.30;99.90;;;;;;4983075;28;20556;-82
2022/06/11 01:06:27;;;;;;;8.50;7.63;;;14.30;99.90;;;;;;4969220;28;20053;-82
2022/06/11 01:08:58;;;;;;;9.40;7.75;;;14.20;99.90;;;;;;4965957;28;20046;-82
2022/06/11 01:11:39;;;;;;;8.88;8.05;;;14.20;99.90;;;;;;4990365;28;20158;-82
2022/06/11 01:14:23;;;;;;;10.45;7.88;;;14.10;99.90;;;;;;4978571;28;20034;-82
2022/06/11 01:17:01;;;;;;;11.10;8.07;;;14.10;99.90;;;;;;4968513;28;20042;-82
2022/06/11 01:19:38;;;;;;;8.43;7.63;;;14.00;99.90;;;;;;4979568;28;20202;-82
2022/06/11 01:22:34;;;;;;;9.27;8.30;;;13.90;99.90;;;;;;4976893;28;20057;-82
2022/06/11 01:25:34;;;;;;;8.68;7.75;;;13.90;99.90;;;;;;4986111;28;20038;-82
2022/06/11 01:28:17;;;;;;;9.60;8.60;;;13.80;99.90;;;;;;4985033;28;20074;-83
2022/06/11 01:30:51;;;;;;;8.85;8.05;;;13.70;99.90;;;;;;4962949;28;20038;-82
2022/06/11 01:33:48;;;;;;;11.55;8.20;;;13.70;99.90;;;;;;4985997;28;20038;-83
2022/06/11 01:36:21;;;;;;;10.13;9.02;;;13.70;99.90;;;;;;4978045;28;20046;-82
2022/06/11 01:38:50;;;;;;;9.50;8.50;;;13.70;99.90;;;;;;4983545;28;20035;-82
2022/06/11 01:41:50;;;;;;;12.98;9.18;;;13.60;99.90;;;;;;4982981;28;20053;-83
2022/06/11 01:44:27;;;;;;;12.32;10.05;;;13.70;99.90;;;;;;4981690;28;20519;-82
2022/06/11 01:46:54;;;;;;;10.52;8.88;;;13.80;99.90;;;;;;5010685;28;20038;-82
2022/06/11 01:49:20;;;;;;;13.95;10.85;;;13.80;99.90;;;;;;4977176;28;20050;-82
2022/06/11 01:52:10;;;;;;;11.27;10.05;;;13.80;99.90;;;;;;4978682;28;20034;-83
2022/06/11 01:55:03;;;;;;;11.25;10.02;;;13.90;99.90;;;;;;4981796;28;20042;-83
2022/06/11 01:57:43;;;;;;;14.73;10.80;;;13.90;99.90;;;;;;4986769;28;20046;-82
2022/06/11 02:00:17;;;;;;;12.05;10.30;;;13.90;99.90;;;;;;4974252;28;20041;-83
2022/06/11 02:02:45;;;;;;;11.73;10.07;;;13.90;99.90;;;;;;4983118;28;20396;-82
2022/06/11 02:05:54;;;;;;;11.65;10.45;;;13.90;99.90;;;;;;4977710;28;20046;-82
2022/06/11 02:08:38;;;;;;;13.18;10.82;;;14.00;99.90;;;;;;4962958;28;20046;-83
2022/06/11 02:11:13;;;;;;;14.43;11.35;;;14.00;99.90;;;;;;4981425;28;20431;-82
2022/06/11 02:13:52;;;;;;;18.60;12.88;;;14.00;99.90;;;;;;4970213;28;20126;-82
2022/06/11 02:16:33;;;;;;;12.88;11.35;;;14.10;99.90;;;;;;4988253;28;20103;-82
2022/06/11 02:19:02;;;;;;;16.65;10.77;;;14.00;99.90;;;;;;4976602;28;20125;-82
2022/06/11 02:21:33;;;;;;;10.68;9.57;;;14.10;99.90;;;;;;4983956;28;20044;-82
2022/06/11 02:24:27;;;;;;;14.07;10.48;;;14.10;99.90;;;;;;5012533;28;20172;-82
2022/06/11 02:26:57;;;;;;;11.05;9.35;;;14.00;99.90;;;;;;4995711;28;20037;-82
2022/06/11 02:29:24;;;;;;;11.18;10.05;;;14.00;99.90;;;;;;4975657;28;20038;-82
2022/06/11 02:31:54;;;;;;;12.98;10.50;;;13.90;99.90;;;;;;4966133;28;20090;-82
2022/06/11 02:34:23;;;;;;;14.75;10.15;;;13.90;99.90;;;;;;4974049;28;20094;-82
2022/06/11 02:37:05;;;;;;;11.50;10.35;;;13.90;99.90;;;;;;4985222;28;20081;-82
2022/06/11 02:39:34;;;;;;;14.90;12.00;;;13.80;99.90;;;;;;4990387;28;20109;-82
2022/06/11 02:42:03;;;;;;;12.48;10.90;;;13.80;99.90;;;;;;4963353;28;20045;-82
2022/06/11 02:44:29;;;;;;;14.30;11.40;;;13.80;99.90;;;;;;4997625;28;20053;-82
2022/06/11 02:46:54;;;;;;;15.38;12.20;;;13.70;99.90;;;;;;4975539;28;20034;-82
2022/06/11 02:49:26;;;;;;;13.88;11.90;;;13.80;99.90;;;;;;4993064;28;20089;-82
2022/06/11 02:51:55;;;;;;;14.90;12.70;;;13.70;99.90;;;;;;4978102;28;20034;-82
2022/06/11 02:54:22;;;;;;;13.68;11.55;;;13.70;99.90;;;;;;4990669;28;20037;-82
2022/06/11 02:56:51;;;;;;;14.82;11.32;;;13.70;99.90;;;;;;4976761;28;20354;-82
2022/06/11 02:59:17;;;;;;;14.43;10.77;;;13.70;99.90;;;;;;4990893;28;20053;-82
2022/06/11 03:01:43;;;;;;;14.32;11.50;;;13.60;99.90;;;;;;4993130;28;20042;-82
2022/06/11 03:04:09;;;;;;;12.52;11.20;;;13.60;99.90;;;;;;4976718;28;20081;-82
2022/06/11 03:06:38;;;;;;;12.15;10.40;;;13.60;99.90;;;;;;4973419;28;20454;-82
2022/06/11 03:09:04;;;;;;;15.02;10.80;;;13.60;99.90;;;;;;4976884;28;20031;-82
2022/06/11 03:11:29;;;;;;;12.35;9.57;;;13.60;99.90;;;;;;4998828;28;20037;-82
2022/06/11 03:13:55;;;;;;;11.77;8.85;;;13.50;99.90;;;;;;4987763;28;20069;-82
2022/06/11 03:16:21;;;;;;;12.27;8.05;;;13.60;99.90;;;;;;4986343;28;20132;-82
2022/06/11 03:18:47;;;;;;;11.88;7.75;;;13.60;99.90;;;;;;4986693;28;20551;-83
2022/06/11 03:21:13;;;;;;;10.32;7.93;;;13.60;99.90;;;;;;4984828;28;20034;-83
2022/06/11 03:23:38;;;;;;;11.80;7.47;;;13.60;99.90;;;;;;4992647;28;20038;-83
2022/06/11 03:26:06;;;;;;;13.18;7.03;;;13.60;99.90;;;;;;4982392;28;20037;-82
2022/06/11 03:28:33;;;;;;;9.32;5.90;;;13.70;99.90;;;;;;4982972;28;20075;-82
2022/06/11 03:30:59;;;;;;;9.57;5.75;;;13.60;99.90;;;;;;4968086;28;20113;-82
2022/06/11 03:33:26;;;;;;;9.43;5.93;;;13.60;99.90;;;;;;4974166;28;20607;-83
2022/06/11 03:35:52;;;;;;;13.43;6.25;;;13.60;99.90;;;;;;4974604;28;20046;-82
2022/06/11 03:38:19;;;;;;;9.95;5.90;;;13.60;99.90;;;;;;4984508;28;20046;-83
2022/06/11 03:40:44;;;;;;;9.73;5.10;;;13.60;99.90;;;;;;4980425;28;20042;-82
2022/06/11 03:43:10;;;;;;;10.80;5.35;;;13.50;99.90;;;;;;4987168;28;20125;-82
2022/06/11 03:45:36;;;;;;;10.60;4.93;;;13.50;99.90;;;;;;4974766;28;20046;-82
2022/06/11 03:48:04;;;;;;;9.32;4.50;;;13.60;99.90;;;;;;4991739;28;20026;-83
2022/06/11 03:50:36;;;;;;;7.95;3.72;;;13.50;99.90;;;;;;4980414;28;20129;-83
2022/06/11 03:53:03;;;;;;;10.00;4.55;;;13.50;99.90;;;;;;4975995;28;20035;-82
2022/06/11 03:55:29;;;;;;;10.30;3.90;;;13.50;99.90;;;;;;4987036;28;20046;-82
2022/06/11 03:57:56;;;;;;;6.50;3.40;;;13.40;99.90;;;;;;4989738;28;20038;-83
2022/06/11 04:03:11;;;;;;;7.03;3.63;;;13.50;99.90;;;;;;4991897;28;20046;-82
2022/06/11 04:05:38;;;;;;;7.60;4.30;;;13.50;99.90;;;;;;4986390;28;20116;-82
2022/06/11 04:08:05;;;;;;;9.02;4.05;;;13.50;99.90;;;;;;4982821;28;20503;-82
2022/06/11 04:10:31;;;;;;;10.52;3.63;;;13.40;99.90;;;;;;4986782;28;20042;-82
2022/06/11 04:12:57;;;;;;;8.95;3.55;;;13.40;99.90;;;;;;5010875;28;20424;-82
2022/06/11 04:15:23;;;;;;;6.57;3.85;;;13.40;99.90;;;;;;4989717;28;20524;-82
2022/06/11 04:17:49;;;;;;;6.25;3.83;;;13.40;99.90;;;;;;4986726;28;20133;-82
2022/06/11 04:20:15;;;;;;;9.90;3.78;;;13.40;99.90;;;;;;4962978;28;20133;-82
2022/06/11 04:22:43;;;;;;;7.13;3.60;;;13.50;99.90;;;;;;4997818;28;20129;-82
2022/06/11 04:25:12;;;;;;;6.78;3.90;;;13.60;99.90;;;;;;5000159;28;20132;-82
2022/06/11 04:27:38;;;;;;;8.00;3.97;;;13.80;99.90;;;;;;5003078;28;20100;-83
2022/06/11 04:30:04;;;;;;;7.57;3.50;;;13.90;99.90;;;;;;4981725;28;20440;-83
2022/06/11 04:32:30;;;;;;;7.57;4.10;;;14.20;99.90;;;;;;4978673;28;20034;-82
2022/06/11 04:34:56;;;;;;;8.57;4.55;;;14.50;99.90;;;;;;5009964;28;20064;-82
2022/06/11 04:37:24;;;;;;;8.38;3.72;;;14.70;99.90;;;;;;4979988;28;20038;-83
2022/06/11 04:39:53;;;;;;;6.38;4.30;;;14.90;99.90;;;;;;4967638;28;20047;-82
2022/06/11 04:42:19;;;;;;;6.20;3.60;;;15.20;99.90;;;;;;5003820;28;20120;-83
2022/06/11 04:44:46;;;;;;;7.00;3.67;;;15.50;99.90;;;;;;4977423;28;20056;-82
2022/06/11 04:47:14;;;;;;;6.32;4.07;;;15.60;99.90;;;;;;4979215;28;20042;-83
2022/06/11 04:49:41;;;;;;;6.18;4.05;;;15.80;99.90;;;;;;4969349;28;20045;-83
2022/06/11 04:52:07;;;;;;;8.95;3.80;;;15.90;99.90;;;;;;4956056;28;20085;-82
2022/06/11 04:54:33;;;;;;;5.72;3.65;;;16.10;99.90;;;;;;4995076;28;20030;-83
2022/06/11 04:56:59;;;;;;;5.88;3.60;;;16.30;99.90;;;;;;4977785;28;20469;-83
2022/06/11 04:59:24;;;;;;;7.88;4.07;;;16.40;99.90;;;;;;4973546;28;20035;-83
2022/06/11 05:01:50;;;;;;;6.28;3.35;;;16.70;99.90;;;;;;4972941;28;20093;-83
2022/06/11 05:04:16;;;;;;;6.30;3.38;;;17.00;99.90;;;;;;4988247;28;20164;-82
2022/06/11 05:06:46;;;;;;;5.00;3.22;;;17.10;99.90;;;;;;4985300;28;20088;-83
2022/06/11 05:09:16;;;;;;;7.13;3.08;;;17.30;99.90;;;;;;4979496;28;20038;-83
2022/06/11 05:11:43;;;;;;;7.82;3.30;;;17.40;99.90;;;;;;4971472;28;20049;-83
2022/06/11 06:18:45;;;;;;;9.02;3.10;;;17.10;99.90;;;;;;4987901;23;20722;-82
2022/06/11 06:47:00;;;;;;;11.95;2.78;;;16.60;99.90;;;;;;4995840;28;20053;-81
2022/06/11 06:53:50;;;;;;;13.88;3.28;;;16.70;99.90;;;;;;4891077;29;20455;-80
2022/06/11 06:56:35;;;;;;;;;;;;;;;;;;;;;
2022/06/11 06:59:07;;;;;;;8.23;3.42;;;16.80;99.90;;;;;;4964223;23;20482;-82
2022/06/11 07:01:33;;;;;;;12.05;3.20;;;16.90;99.90;;;;;;4976768;28;20130;-84
2022/06/11 07:03:59;;;;;;;11.15;3.83;;;17.00;99.90;;;;;;4971094;28;20042;-84
2022/06/11 07:06:26;;;;;;;15.52;3.60;;;17.10;99.90;;;;;;4979913;28;20046;-82
2022/06/11 07:08:53;;;;;;;8.98;3.05;;;17.20;99.90;;;;;;4944495;28;20039;-85
2022/06/11 07:11:20;;;;;;;12.40;3.28;;;17.30;99.90;;;;;;4940701;28;20039;-84
2022/06/11 07:13:46;;;;;;;15.60;4.05;;;17.30;99.90;;;;;;4965171;28;20055;-84
2022/06/11 07:16:16;;;;;;;11.20;3.03;;;17.30;99.90;;;;;;4956306;28;20085;-84
2022/06/11 07:18:53;;;;;;;11.30;3.00;;;17.50;99.90;;;;;;4969690;28;20133;-85
2022/06/11 07:21:26;;;;;;;14.90;3.30;;;17.60;99.90;;;;;;4953467;28;20046;-84
2022/06/11 07:24:04;;;;;;;9.45;2.80;;;17.70;99.90;;;;;;4942202;28;20049;-83
2022/06/11 07:26:34;;;;;;;10.90;3.42;;;17.80;99.90;;;;;;4952098;28;20143;-83
2022/06/11 07:29:37;;;;;;;11.63;3.28;;;17.80;99.90;;;;;;4958617;28;20043;-82
2022/06/11 07:32:10;;;;;;;12.65;3.72;;;18.00;99.90;;;;;;4902291;29;20072;-83
2022/06/11 07:34:36;;;;;;;15.40;3.70;;;18.10;99.90;;;;;;4956049;28;20050;-83
2022/06/11 07:37:02;;;;;;;8.88;3.17;;;18.20;99.90;;;;;;4953341;28;20034;-83
2022/06/11 07:39:28;;;;;;;8.98;2.90;;;18.40;99.90;;;;;;4950333;28;20042;-83
2022/06/11 07:41:53;;;;;;;9.70;2.70;;;18.70;99.90;;;;;;4975954;28;20038;-83
2022/06/11 07:44:19;;;;;;;10.55;2.83;;;19.00;99.90;;;;;;4960260;28;20081;-84
2022/06/11 07:46:44;;;;;;;9.40;3.30;;;19.40;99.90;;;;;;4955364;28;20039;-84
2022/06/11 07:49:10;;;;;;;10.02;2.90;;;19.70;99.90;;;;;;4956754;28;20551;-84
2022/06/11 07:51:36;;;;;;;10.25;2.80;;;20.20;99.90;;;;;;4975626;28;20038;-84
2022/06/11 07:54:02;;;;;;;6.85;2.60;;;20.70;99.90;;;;;;4959810;28;20034;-84
2022/06/11 07:56:28;;;;;;;10.80;3.10;;;21.20;99.90;;;;;;4956855;28;20042;-84
2022/06/11 07:58:53;;;;;;;16.05;4.18;;;21.80;99.90;;;;;;4952918;28;20054;-84
2022/06/11 08:01:19;;;;;;;13.38;3.22;;;22.20;99.90;;;;;;4961049;28;20077;-84
2022/06/11 08:03:45;;;;;;;13.45;3.30;;;22.40;99.90;;;;;;4950015;28;20098;-83
2022/06/11 08:06:11;;;;;;;12.68;3.15;;;22.70;99.90;;;;;;4965007;28;20054;-83
2022/06/11 08:08:37;;;;;;;11.88;3.17;;;23.00;99.90;;;;;;4958088;28;20041;-86
2022/06/11 08:11:05;;;;;;;10.82;2.90;;;23.30;99.90;;;;;;4939941;28;20035;-82
2022/06/11 08:13:31;;;;;;;10.63;2.85;;;23.60;99.90;;;;;;4952973;28;20048;-84
2022/06/11 08:15:57;;;;;;;11.15;2.60;;;23.90;99.90;;;;;;4961466;28;20046;-83
2022/06/11 08:18:24;;;;;;;12.32;3.35;;;24.10;99.90;;;;;;4974156;28;20054;-83
2022/06/11 08:20:51;;;;;;;9.02;2.85;;;24.30;99.90;;;;;;4939486;28;20066;-82
2022/06/11 08:23:18;;;;;;;12.18;2.80;;;24.50;99.90;;;;;;4941161;29;20039;-83
2022/06/11 08:25:44;;;;;;;9.85;2.80;;;24.70;99.90;;;;;;4961601;28;20113;-83
2022/06/11 08:28:12;;;;;;;11.75;3.40;;;24.90;99.90;;;;;;4974935;28;20149;-83
2022/06/11 08:30:38;;;;;;;9.40;3.33;;;25.10;99.90;;;;;;4956129;28;20131;-80
2022/06/11 08:33:04;;;;;;;12.40;3.85;;;25.30;99.90;;;;;;4947481;28;20341;-81
2022/06/11 08:35:31;;;;;;;12.20;3.00;;;25.40;99.90;;;;;;4955961;28;20571;-82
2022/06/11 08:37:57;;;;;;;10.05;2.53;;;25.60;99.90;;;;;;4935601;28;20042;-81
2022/06/11 08:40:57;;;;;;;9.95;2.65;;;25.60;99.90;;;;;;4949755;28;20103;-82
2022/06/11 08:43:40;;;;;;;11.43;3.08;;;25.70;99.90;;;;;;4941108;28;20476;-81
2022/06/11 08:46:16;;;;;;;8.45;2.53;;;25.90;99.90;;;;;;4951990;28;20043;-81
2022/06/11 08:48:42;;;;;;;9.93;2.83;;;26.10;99.90;;;;;;4960120;28;20039;-83
2022/06/11 08:51:24;;;;;;;10.07;2.60;;;26.20;99.90;;;;;;4954886;28;20035;-81
2022/06/11 08:53:54;;;;;;;9.57;2.70;;;26.40;99.90;;;;;;4939876;28;20038;-81
2022/06/11 08:56:44;;;;;;;12.95;3.05;;;26.60;99.90;;;;;;4972732;28;20560;-82
2022/06/11 08:59:44;;;;;;;8.05;2.47;;;26.60;99.90;;;;;;4892174;28;20065;-82
2022/06/11 09:02:55;;;;;;;10.07;2.90;;;26.80;99.90;;;;;;4970547;28;20110;-82
2022/06/11 09:05:45;;;;;;;8.93;2.95;;;26.90;99.90;;;;;;4930507;28;20043;-82
2022/06/11 09:08:10;;;;;;;9.02;2.13;;;27.00;99.90;;;;;;4959881;28;20073;-83
2022/06/11 09:10:39;;;;;;;8.90;2.35;;;27.10;99.90;;;;;;4945581;28;20513;-82
2022/06/11 09:13:29;;;;;;;7.85;2.30;;;27.20;99.90;;;;;;4965342;28;20042;-82
2022/06/11 09:16:36;;;;;;;7.00;2.22;;;27.40;99.90;;;;;;4938916;28;20098;-84
2022/06/11 09:19:27;;;;;;;7.93;1.98;;;27.50;99.90;;;;;;4956049;28;20038;-82
2022/06/11 09:22:18;;;;;;;7.47;2.05;;;27.60;97.00;;;;;;4945383;28;20038;-82
2022/06/11 09:25:03;;;;;;;5.38;2.15;;;27.40;95.90;;;;;;4948016;28;20043;-80
2022/06/11 09:27:42;;;;;;;6.28;2.00;;;27.30;92.00;;;;;;4942631;28;20130;-82
2022/06/11 09:30:10;;;;;;;6.22;2.03;;;27.40;99.90;;;;;;4950506;28;20122;-81
2022/06/11 09:33:03;;;;;;;7.78;2.25;;;27.40;99.90;;;;;;4942795;28;20035;-82
2022/06/11 09:36:01;;;;;;;8.88;2.45;;;27.50;98.60;;;;;;4948222;28;20405;-82
2022/06/11 09:38:37;;;;;;;8.25;2.17;;;27.50;96.10;;;;;;4958925;28;20042;-82
2022/06/11 09:41:39;;;;;;;7.75;2.22;;;27.60;99.90;;;;;;4954304;28;20435;-82
2022/06/11 09:44:16;;;;;;;7.07;2.07;;;27.60;95.30;;;;;;4975222;28;20047;-82
2022/06/11 09:46:59;;;;;;;7.25;2.00;;;27.60;95.40;;;;;;4950725;28;20352;-81
2022/06/11 09:49:30;;;;;;;5.72;1.67;;;27.60;94.60;;;;;;4951792;28;20035;-80
2022/06/11 09:52:21;;;;;;;6.90;1.98;;;27.70;99.30;;;;;;4954960;28;20070;-80
2022/06/11 09:55:04;;;;;;;4.95;1.48;;;27.80;98.90;;;;;;4938555;28;20077;-81
2022/06/11 09:58:01;;;;;;;6.97;2.08;;;27.80;99.20;;;;;;4954241;28;20493;-81
2022/06/11 10:00:34;;;;;;;7.13;2.38;;;28.00;95.80;;;;;;4951772;28;20046;-80
2022/06/11 10:03:35;;;;;;;5.25;1.63;;;28.10;91.10;;;;;;4962000;28;20441;-81
2022/06/11 10:06:29;;;;;;;6.43;1.83;;;28.20;95.10;;;;;;4949425;28;20042;-81
2022/06/11 10:09:00;;;;;;;6.05;1.60;;;28.30;94.70;;;;;;4963599;28;20448;-81
2022/06/11 10:11:32;;;;;;;6.45;1.60;;;28.50;97.40;;;;;;4953934;28;20660;-80
2022/06/11 10:17:05;;;;;;;6.43;1.93;;;28.70;94.10;;;;;;4970198;28;20046;-80
2022/06/11 10:19:46;;;;;;;7.22;2.20;;;28.70;94.00;;;;;;4949867;28;20050;-80
2022/06/11 10:22:25;;;;;;;6.22;1.60;;;28.70;91.10;;;;;;4958180;28;20042;-80
2022/06/11 10:25:15;;;;;;;4.82;1.77;;;28.80;95.80;;;;;;4961434;28;20064;-81
2022/06/11 10:27:48;;;;;;;5.60;1.88;;;28.80;92.90;;;;;;4959925;28;20066;-81
2022/06/11 10:30:18;;;;;;;6.88;2.10;;;28.80;94.40;;;;;;4952648;28;20069;-80
2022/06/11 10:32:47;;;;;;;5.85;1.88;;;28.80;92.70;;;;;;4953842;28;20497;-81
2022/06/11 10:35:21;;;;;;;7.18;2.03;;;28.80;94.50;;;;;;4972217;28;20563;-80
2022/06/11 10:38:04;;;;;;;7.13;1.65;;;28.90;95.30;;;;;;4969958;28;20089;-80
2022/06/11 10:40:44;;;;;;;7.35;2.15;;;29.00;94.30;;;;;;4962863;28;20043;-80
2022/06/11 10:43:21;;;;;;;7.63;1.92;;;29.10;93.00;;;;;;4935774;28;20097;-79
2022/06/11 10:45:49;;;;;;;7.03;2.17;;;29.20;92.50;;;;;;4948876;28;20162;-80
2022/06/11 10:48:19;;;;;;;6.45;1.80;;;29.20;93.60;;;;;;4961005;28;20042;-80
2022/06/11 10:50:45;;;;;;;7.85;1.92;;;29.20;92.30;;;;;;4958136;28;20046;-80
2022/06/11 10:53:17;;;;;;;6.93;2.22;;;29.20;92.40;;;;;;4953124;28;20485;-81
2022/06/11 10:55:50;;;;;;;8.50;2.10;;;29.20;92.90;;;;;;4972852;28;20425;-80
2022/06/11 10:58:28;;;;;;;5.75;1.83;;;29.10;90.00;;;;;;4967841;28;20044;-80
2022/06/11 11:00:58;;;;;;;5.35;1.70;;;29.20;88.90;;;;;;4939552;28;20409;-80
2022/06/11 11:03:41;;;;;;;7.30;2.00;;;29.20;93.30;;;;;;4948908;28;20035;-80
2022/06/11 11:06:23;;;;;;;4.50;1.70;;;29.30;93.30;;;;;;4958042;28;20045;-80
2022/06/11 11:09:01;;;;;;;6.65;2.58;;;29.40;88.50;;;;;;4941016;28;20050;-80
2022/06/11 11:11:32;;;;;;;5.18;1.58;;;29.30;91.40;;;;;;4946762;28;20146;-80
2022/06/11 11:14:07;;;;;;;7.03;1.83;;;29.40;92.30;;;;;;4966430;28;20034;-80
2022/06/11 11:16:37;;;;;;;7.90;1.85;;;29.30;91.80;;;;;;4972027;28;20515;-80
2022/06/11 11:19:12;;;;;;;8.73;2.20;;;29.40;92.00;;;;;;4940995;28;20125;-81
2022/06/11 11:22:00;;;;;;;10.73;2.33;;;29.30;91.10;;;;;;4963409;28;20038;-80
2022/06/11 11:24:33;;;;;;;6.22;2.03;;;29.40;91.50;;;;;;4947741;28;20232;-80
2022/06/11 11:27:07;;;;;;;7.47;2.28;;;29.30;91.90;;;;;;4953880;28;20560;-80
2022/06/11 11:29:39;;;;;;;6.97;1.90;;;29.40;91.80;;;;;;4946672;28;20090;-80
2022/06/11 11:32:24;;;;;;;8.35;1.90;;;29.40;91.30;;;;;;4971889;28;20061;-79
2022/06/11 11:34:50;;;;;;;6.72;2.10;;;29.50;91.10;;;;;;4971698;28;20045;-80
2022/06/11 11:37:16;;;;;;;7.53;2.45;;;29.50;92.90;;;;;;4945672;28;20038;-80
2022/06/11 11:39:56;;;;;;;6.93;1.98;;;29.50;92.40;;;;;;4948172;28;20134;-80
2022/06/11 11:42:32;;;;;;;6.40;1.90;;;29.40;86.30;;;;;;4968446;28;20390;-79
2022/06/11 11:44:57;;;;;;;6.82;2.00;;;29.30;91.60;;;;;;4959882;28;20092;-79
2022/06/11 11:47:33;;;;;;;6.18;2.10;;;29.30;92.80;;;;;;4948472;28;20042;-80
2022/06/11 11:50:05;;;;;;;7.30;2.40;;;29.30;92.20;;;;;;4951917;28;20162;-79
2022/06/11 11:52:31;;;;;;;5.63;1.77;;;29.30;91.20;;;;;;4970243;28;20069;-79
2022/06/11 11:55:11;;;;;;;5.35;1.50;;;29.40;92.30;;;;;;4975632;28;20077;-80
2022/06/11 11:57:37;;;;;;;8.00;2.15;;;29.40;91.80;;;;;;4968688;28;20050;-80
2022/06/11 12:00:23;;;;;;;5.78;1.80;;;29.50;93.20;;;;;;4975076;28;20121;-79
2022/06/11 12:02:59;;;;;;;7.68;2.60;;;29.60;93.30;;;;;;4898165;28;20046;-81
2022/06/11 12:05:31;;;;;;;6.70;1.70;;;29.60;90.30;;;;;;4949319;28;20141;-80
2022/06/11 12:07:58;;;;;;;;;;;29.60;91.30;;;;;;4965915;28;20125;-81
2022/06/11 12:10:45;;;;;;;6.68;2.10;;;29.60;86.30;;;;;;4962757;28;19918;-81
2022/06/11 12:13:25;;;;;;;6.47;1.70;;;29.60;84.10;;;;;;4947639;28;20038;-80
2022/06/11 12:16:00;;;;;;;7.72;1.80;;;29.70;81.50;;;;;;4954000;28;20035;-80
2022/06/11 12:18:42;;;;;;;5.88;1.88;;;29.60;85.20;;;;;;4968180;28;20397;-82
2022/06/11 12:21:16;;;;;;;6.57;1.90;;;29.60;77.70;;;;;;4952229;28;20119;-81
2022/06/11 12:24:06;;;;;;;6.43;2.17;;;29.50;82.60;;;;;;4955832;28;20130;-82
2022/06/11 12:26:46;;;;;;;7.70;2.28;;;29.50;84.20;;;;;;4951497;28;20516;-81
2022/06/11 12:29:28;;;;;;;7.28;1.98;;;29.50;90.20;;;;;;4972965;28;20042;-81
2022/06/11 12:32:09;;;;;;;8.30;2.05;;;29.60;87.30;;;;;;4963143;28;20086;-81
2022/06/11 12:34:35;;;;;;;6.00;2.00;;;29.60;90.30;;;;;;4959580;28;20065;-81
2022/06/11 12:37:28;;;;;;;7.80;2.28;;;29.70;90.30;;;;;;4960054;28;20053;-81
2022/06/11 12:39:53;;;;;;;6.55;2.15;;;29.80;86.90;;;;;;4914755;28;20408;-80
2022/06/11 12:42:42;;;;;;;7.85;2.33;;;30.00;90.80;;;;;;4951006;28;20046;-80
2022/06/11 12:45:24;;;;;;;7.38;1.88;;;30.10;78.40;;;;;;4937658;28;20049;-80
2022/06/11 12:48:05;;;;;;;7.55;2.25;;;30.10;78.40;;;;;;4950916;28;20066;-80
2022/06/11 12:50:48;;;;;;;6.68;1.90;;;30.00;76.60;;;;;;4961098;28;20515;-80
2022/06/11 12:53:21;;;;;;;8.68;2.10;;;29.90;85.10;;;;;;4956453;28;20043;-80
2022/06/11 12:56:30;;;;;;;6.07;1.83;;;29.80;90.40;;;;;;4947358;28;20051;-80
2022/06/11 13:05:20;;;;;;;8.27;2.28;;;29.70;78.40;;;;;;4967642;28;20050;-79
2022/06/11 13:11:52;;;;;;;7.57;2.42;;;29.60;89.40;;;;;;4967310;28;20039;-81
2022/06/11 13:22:21;;;;;;;7.47;2.17;;;29.70;85.00;;;;;;4835615;29;20404;-82
2022/06/11 13:25:49;;;;;;;5.75;2.20;;;29.90;80.70;;;;;;4795871;29;20059;-82
2022/06/11 13:33:04;;;;;;;8.15;2.60;;;30.00;83.70;;;;;;4840102;29;20083;-82
2022/06/11 13:36:28;;;;;;;6.90;2.08;;;29.90;84.60;;;;;;4828730;29;20046;-82
2022/06/11 13:39:57;;;;;;;8.05;2.60;;;29.80;80.70;;;;;;4823259;29;20050;-82
2022/06/11 13:44:03;;;;;;;;;;;;;;;;;;;;;
2022/06/11 14:06:13;;;;;;;8.75;2.13;;;29.60;87.40;;;;;;4925755;29;20316;-81
2022/06/11 14:16:43;;;;;;;7.55;1.92;;;29.70;91.80;;;;;;4986620;28;20050;-80
2022/06/11 14:19:28;;;;;;;8.10;2.17;;;29.60;92.70;;;;;;4970514;28;20038;-82
2022/06/11 14:21:56;;;;;;;7.47;1.92;;;29.70;92.10;;;;;;4946183;28;20374;-81
2022/06/11 14:24:40;;;;;;;6.57;2.00;;;29.70;91.50;;;;;;4966770;28;20038;-79
2022/06/11 14:27:32;;;;;;;6.30;1.85;;;29.70;93.00;;;;;;4975041;28;20150;-80
2022/06/11 14:30:19;;;;;;;6.90;2.08;;;29.70;92.00;;;;;;4963694;28;20118;-79
2022/06/11 14:33:02;;;;;;;9.82;2.38;;;29.80;84.70;;;;;;4964869;28;20045;-81
2022/06/11 14:35:35;;;;;;;6.50;1.92;;;29.70;86.10;;;;;;4956569;28;20046;-81
2022/06/11 14:38:32;;;;;;;9.38;2.10;;;29.70;90.20;;;;;;4958855;28;20049;-79
2022/06/11 14:41:07;;;;;;;5.07;1.85;;;29.60;88.50;;;;;;4962949;28;20053;-79
2022/06/11 14:43:53;;;;;;;8.75;1.98;;;29.50;79.80;;;;;;4963172;28;20088;-79
2022/06/11 14:46:40;;;;;;;7.10;2.03;;;29.30;86.20;;;;;;4963466;28;20129;-80
2022/06/11 14:49:12;;;;;;;7.05;1.83;;;29.10;87.10;;;;;;4971659;28;20035;-79
2022/06/11 14:51:40;;;;;;;5.13;1.90;;;28.90;91.60;;;;;;4979575;28;20046;-79
2022/06/11 14:54:23;;;;;;;9.63;2.22;;;28.80;90.60;;;;;;4964158;28;20038;-80
2022/06/11 14:57:22;;;;;;;5.80;1.60;;;28.60;90.90;;;;;;4978330;28;20401;-79
2022/06/11 15:00:04;;;;;;;7.63;2.03;;;28.40;79.60;;;;;;4955900;28;20046;-79
2022/06/11 15:02:44;;;;;;;8.30;1.73;;;28.10;91.50;;;;;;4979181;28;20400;-80
2022/06/11 15:05:40;;;;;;;7.88;2.00;;;27.70;93.90;;;;;;4979101;28;20145;-80
2022/06/11 15:08:36;;;;;;;8.13;2.15;;;27.10;92.50;;;;;;4949614;28;20532;-80
2022/06/11 15:11:39;;;;;;;5.20;1.77;;;26.50;90.20;;;;;;4977284;28;20049;-80
2022/06/11 15:14:08;;;;;;;7.72;2.38;;;25.90;90.50;;;;;;4962057;28;20041;-80
2022/06/11 15:16:38;;;;;;;5.93;1.70;;;25.40;93.80;;;;;;4953505;28;20055;-80
2022/06/11 15:19:18;;;;;;;8.52;2.28;;;25.10;94.60;;;;;;4949606;28;20039;-79
2022/06/11 15:21:49;;;;;;;7.53;1.95;;;24.70;95.00;;;;;;4973716;28;20050;-79
2022/06/11 15:24:44;;;;;;;5.47;1.77;;;24.40;96.70;;;;;;4960717;28;20054;-79
2022/06/11 15:27:11;;;;;;;8.10;2.13;;;24.10;95.50;;;;;;4967515;28;20060;-80
2022/06/11 15:29:37;;;;;;;5.50;1.50;;;23.80;94.90;;;;;;4952135;28;20050;-80
2022/06/11 15:32:12;;;;;;;6.20;2.10;;;23.60;94.10;;;;;;4968995;28;20042;-79
2022/06/11 15:34:43;;;;;;;8.90;2.33;;;23.50;94.70;;;;;;4976815;28;20046;-79
2022/06/11 15:37:15;;;;;;;6.28;1.88;;;23.20;95.00;;;;;;4947448;28;20039;-80
2022/06/11 15:39:47;;;;;;;7.07;2.20;;;23.10;93.80;;;;;;4948784;28;20049;-80
2022/06/11 15:42:35;;;;;;;6.32;1.60;;;22.90;93.10;;;;;;4923597;29;20046;-80
2022/06/11 15:45:05;;;;;;;7.68;2.50;;;22.70;93.40;;;;;;4923142;28;20513;-80
2022/06/11 15:47:32;;;;;;;7.53;2.22;;;22.60;93.50;;;;;;4943686;28;20096;-79
2022/06/11 15:50:04;;;;;;;9.15;1.98;;;22.40;92.20;;;;;;4960292;28;20046;-79
2022/06/11 15:52:58;;;;;;;8.00;2.28;;;22.20;92.60;;;;;;4958715;28;20117;-80
2022/06/11 15:55:37;;;;;;;10.43;2.33;;;22.10;94.70;;;;;;4947224;28;20038;-79
2022/06/11 15:58:05;;;;;;;9.52;2.63;;;21.90;95.30;;;;;;4953137;28;20057;-78